sensor_id;sensor_type;location;lat;lon;timestamp;P1;durP1;ratioP1;P2;durP2;ratioP2
1366;SDS011;16877;48.810;9.282;2022-11-15T00:01:26;3.40;;;1.90;;
1366;SDS011;16877;48.810;9.282;2022-11-15T00:03:53;5.60;;;2.00;;
1366;SDS011;16877;48.810;9.282;2022-11-15T00:06:21;3.10;;;2.40;;
1366;SDS011;16877;48.810;9.282;2022-11-15T00:08:47;3.57;;;2.43;;
1366;SDS011;16877;48.810;9.282;2022-11-15T00:11:14;3.40;;;2.37;;
1366;SDS011;16877;48.810;9.282;2022-11-15T00:13:41;5.60;;;2.67;;
1366;SDS011;16877;48.810;9.282;2022-11-15T00:16:08;3.77;;;2.97;;
1366;SDS011;16877;48.810;9.282;2022-11-15T00:18:35;3.80;;;2.93;;
1366;SDS011;16877;48.810;9.282;2022-11-15T00:21:03;4.07;;;3.10;;
1366;SDS011;16877;48.810;9.282;2022-11-15T00:23:32;4.97;;;3.00;;
1366;SDS011;16877;48.810;9.282;2022-11-15T00:25:59;3.87;;;2.47;;
1366;SDS011;16877;48.810;9.282;2022-11-15T00:28:26;6.37;;;2.90;;
1366;SDS011;16877;48.810;9.282;2022-11-15T00:30:52;3.70;;;2.80;;
1366;SDS011;16877;48.810;9.282;2022-11-15T00:33:19;2.87;;;2.33;;
1366;SDS011;16877;48.810;9.282;2022-11-15T00:35:46;6.37;;;3.73;;
1366;SDS011;16877;48.810;9.282;2022-11-15T00:38:12;4.07;;;2.97;;
1366;SDS011;16877;48.810;9.282;2022-11-15T00:40:40;4.33;;;2.77;;
1366;SDS011;16877;48.810;9.282;2022-11-15T00:43:07;4.17;;;3.30;;
1366;SDS011;16877;48.810;9.282;2022-11-15T00:45:34;3.40;;;2.60;;
1366;SDS011;16877;48.810;9.282;2022-11-15T00:48:00;4.17;;;2.90;;
1366;SDS011;16877;48.810;9.282;2022-11-15T00:50:27;3.90;;;3.10;;
1366;SDS011;16877;48.810;9.282;2022-11-15T00:52:54;3.90;;;2.90;;
1366;SDS011;16877;48.810;9.282;2022-11-15T00:55:21;4.47;;;3.43;;
1366;SDS011;16877;48.810;9.282;2022-11-15T00:57:49;6.13;;;3.50;;
1366;SDS011;16877;48.810;9.282;2022-11-15T01:00:16;4.50;;;2.90;;
1366;SDS011;16877;48.810;9.282;2022-11-15T01:02:43;3.37;;;2.57;;
1366;SDS011;16877;48.810;9.282;2022-11-15T01:05:09;5.90;;;3.70;;
1366;SDS011;16877;48.810;9.282;2022-11-15T01:07:36;4.50;;;3.47;;
1366;SDS011;16877;48.810;9.282;2022-11-15T01:10:03;5.83;;;3.37;;
1366;SDS011;16877;48.810;9.282;2022-11-15T01:12:30;3.37;;;2.40;;
1366;SDS011;16877;48.810;9.282;2022-11-15T01:14:58;5.70;;;2.90;;
1366;SDS011;16877;48.810;9.282;2022-11-15T01:17:25;4.40;;;2.93;;
1366;SDS011;16877;48.810;9.282;2022-11-15T01:19:52;3.97;;;3.03;;
1366;SDS011;16877;48.810;9.282;2022-11-15T01:22:19;3.67;;;2.80;;
1366;SDS011;16877;48.810;9.282;2022-11-15T01:24:45;3.67;;;3.00;;
1366;SDS011;16877;48.810;9.282;2022-11-15T01:27:12;4.40;;;3.30;;
1366;SDS011;16877;48.810;9.282;2022-11-15T01:29:39;4.27;;;2.93;;
1366;SDS011;16877;48.810;9.282;2022-11-15T01:32:07;6.70;;;2.93;;
1366;SDS011;16877;48.810;9.282;2022-11-15T01:34:34;4.00;;;2.90;;
1366;SDS011;16877;48.810;9.282;2022-11-15T01:37:00;3.53;;;2.60;;
1366;SDS011;16877;48.810;9.282;2022-11-15T01:39:27;4.87;;;3.20;;
1366;SDS011;16877;48.810;9.282;2022-11-15T01:41:54;3.80;;;3.10;;
1366;SDS011;16877;48.810;9.282;2022-11-15T01:44:40;5.03;;;3.50;;
1366;SDS011;16877;48.810;9.282;2022-11-15T01:47:11;3.90;;;2.87;;
1366;SDS011;16877;48.810;9.282;2022-11-15T01:49:43;4.10;;;2.97;;
1366;SDS011;16877;48.810;9.282;2022-11-15T01:52:17;4.90;;;3.23;;
1366;SDS011;16877;48.810;9.282;2022-11-15T01:54:45;4.30;;;2.53;;
1366;SDS011;16877;48.810;9.282;2022-11-15T01:57:13;6.27;;;3.10;;
1366;SDS011;16877;48.810;9.282;2022-11-15T01:59:40;6.00;;;3.57;;
1366;SDS011;16877;48.810;9.282;2022-11-15T02:02:10;4.57;;;3.60;;
1366;SDS011;16877;48.810;9.282;2022-11-15T02:04:39;5.00;;;3.90;;
1366;SDS011;16877;48.810;9.282;2022-11-15T02:07:10;5.50;;;3.30;;
1366;SDS011;16877;48.810;9.282;2022-11-15T02:09:39;5.30;;;3.57;;
1366;SDS011;16877;48.810;9.282;2022-11-15T02:12:06;4.50;;;3.67;;
1366;SDS011;16877;48.810;9.282;2022-11-15T02:14:35;4.80;;;3.70;;
1366;SDS011;16877;48.810;9.282;2022-11-15T02:17:07;4.17;;;3.50;;
1366;SDS011;16877;48.810;9.282;2022-11-15T02:19:50;4.80;;;3.90;;
1366;SDS011;16877;48.810;9.282;2022-11-15T02:22:43;4.63;;;3.70;;
1366;SDS011;16877;48.810;9.282;2022-11-15T02:25:24;3.70;;;3.23;;
1366;SDS011;16877;48.810;9.282;2022-11-15T02:28:16;3.50;;;2.83;;
1366;SDS011;16877;48.810;9.282;2022-11-15T02:31:00;4.40;;;3.23;;
1366;SDS011;16877;48.810;9.282;2022-11-15T02:33:34;4.20;;;3.03;;
1366;SDS011;16877;48.810;9.282;2022-11-15T02:36:09;4.40;;;3.63;;
1366;SDS011;16877;48.810;9.282;2022-11-15T02:38:40;5.20;;;3.90;;
1366;SDS011;16877;48.810;9.282;2022-11-15T02:41:13;4.53;;;3.40;;
1366;SDS011;16877;48.810;9.282;2022-11-15T02:43:44;4.17;;;3.37;;
1366;SDS011;16877;48.810;9.282;2022-11-15T02:46:25;3.47;;;2.87;;
1366;SDS011;16877;48.810;9.282;2022-11-15T02:49:16;6.10;;;3.80;;
1366;SDS011;16877;48.810;9.282;2022-11-15T02:51:44;4.80;;;3.37;;
1366;SDS011;16877;48.810;9.282;2022-11-15T02:54:14;5.03;;;3.23;;
1366;SDS011;16877;48.810;9.282;2022-11-15T02:56:46;5.97;;;3.63;;
1366;SDS011;16877;48.810;9.282;2022-11-15T02:59:17;5.23;;;3.30;;
1366;SDS011;16877;48.810;9.282;2022-11-15T03:02:04;4.60;;;3.20;;
1366;SDS011;16877;48.810;9.282;2022-11-15T03:04:43;3.80;;;2.83;;
1366;SDS011;16877;48.810;9.282;2022-11-15T03:07:18;3.47;;;2.70;;
1366;SDS011;16877;48.810;9.282;2022-11-15T03:09:51;3.50;;;2.93;;
1366;SDS011;16877;48.810;9.282;2022-11-15T03:12:22;3.70;;;3.10;;
1366;SDS011;16877;48.810;9.282;2022-11-15T03:14:54;5.03;;;3.30;;
1366;SDS011;16877;48.810;9.282;2022-11-15T03:17:26;4.93;;;3.20;;
1366;SDS011;16877;48.810;9.282;2022-11-15T03:19:56;5.23;;;3.43;;
1366;SDS011;16877;48.810;9.282;2022-11-15T03:22:27;5.60;;;3.90;;
1366;SDS011;16877;48.810;9.282;2022-11-15T03:24:58;4.97;;;3.07;;
1366;SDS011;16877;48.810;9.282;2022-11-15T03:27:28;4.80;;;3.70;;
1366;SDS011;16877;48.810;9.282;2022-11-15T03:30:00;5.30;;;3.47;;
1366;SDS011;16877;48.810;9.282;2022-11-15T03:32:31;3.50;;;2.87;;
1366;SDS011;16877;48.810;9.282;2022-11-15T03:35:02;4.07;;;3.10;;
1366;SDS011;16877;48.810;9.282;2022-11-15T03:37:34;4.60;;;3.40;;
1366;SDS011;16877;48.810;9.282;2022-11-15T03:40:03;4.90;;;3.90;;
1366;SDS011;16877;48.810;9.282;2022-11-15T03:42:31;3.80;;;3.30;;
1366;SDS011;16877;48.810;9.282;2022-11-15T03:45:09;4.67;;;3.20;;
1366;SDS011;16877;48.810;9.282;2022-11-15T03:47:42;4.63;;;3.57;;
1366;SDS011;16877;48.810;9.282;2022-11-15T03:50:15;4.50;;;2.87;;
1366;SDS011;16877;48.810;9.282;2022-11-15T03:52:44;4.40;;;3.10;;
1366;SDS011;16877;48.810;9.282;2022-11-15T03:55:13;4.30;;;3.20;;
1366;SDS011;16877;48.810;9.282;2022-11-15T03:57:42;4.10;;;2.40;;
1366;SDS011;16877;48.810;9.282;2022-11-15T04:00:09;4.80;;;2.90;;
1366;SDS011;16877;48.810;9.282;2022-11-15T04:02:36;4.50;;;2.97;;
1366;SDS011;16877;48.810;9.282;2022-11-15T04:05:05;3.40;;;2.63;;
1366;SDS011;16877;48.810;9.282;2022-11-15T04:07:32;3.87;;;2.80;;
1366;SDS011;16877;48.810;9.282;2022-11-15T04:09:59;3.93;;;2.80;;
1366;SDS011;16877;48.810;9.282;2022-11-15T04:12:28;4.13;;;2.67;;
1366;SDS011;16877;48.810;9.282;2022-11-15T04:14:58;3.93;;;3.07;;
1366;SDS011;16877;48.810;9.282;2022-11-15T04:17:36;3.67;;;2.63;;
1366;SDS011;16877;48.810;9.282;2022-11-15T04:20:06;3.40;;;2.60;;
1366;SDS011;16877;48.810;9.282;2022-11-15T04:22:53;4.93;;;2.90;;
1366;SDS011;16877;48.810;9.282;2022-11-15T04:25:38;4.17;;;2.67;;
1366;SDS011;16877;48.810;9.282;2022-11-15T04:28:05;6.33;;;3.53;;
1366;SDS011;16877;48.810;9.282;2022-11-15T04:30:32;3.87;;;3.37;;
1366;SDS011;16877;48.810;9.282;2022-11-15T04:32:59;3.87;;;3.10;;
1366;SDS011;16877;48.810;9.282;2022-11-15T04:35:27;4.80;;;3.20;;
1366;SDS011;16877;48.810;9.282;2022-11-15T04:37:54;6.33;;;3.10;;
1366;SDS011;16877;48.810;9.282;2022-11-15T04:40:21;4.13;;;2.93;;
1366;SDS011;16877;48.810;9.282;2022-11-15T04:42:48;3.50;;;3.17;;
1366;SDS011;16877;48.810;9.282;2022-11-15T04:45:15;5.00;;;3.40;;
1366;SDS011;16877;48.810;9.282;2022-11-15T04:47:43;4.03;;;2.83;;
1366;SDS011;16877;48.810;9.282;2022-11-15T04:50:11;4.73;;;3.17;;
1366;SDS011;16877;48.810;9.282;2022-11-15T04:52:40;4.60;;;3.60;;
1366;SDS011;16877;48.810;9.282;2022-11-15T04:55:07;4.20;;;3.33;;
1366;SDS011;16877;48.810;9.282;2022-11-15T04:57:34;5.97;;;4.20;;
1366;SDS011;16877;48.810;9.282;2022-11-15T05:00:01;5.13;;;3.70;;
1366;SDS011;16877;48.810;9.282;2022-11-15T05:02:29;5.63;;;3.77;;
1366;SDS011;16877;48.810;9.282;2022-11-15T05:05:16;5.33;;;3.53;;
1366;SDS011;16877;48.810;9.282;2022-11-15T05:07:43;4.60;;;3.33;;
1366;SDS011;16877;48.810;9.282;2022-11-15T05:10:09;6.07;;;3.30;;
1366;SDS011;16877;48.810;9.282;2022-11-15T05:12:37;8.50;;;4.50;;
1366;SDS011;16877;48.810;9.282;2022-11-15T05:15:04;4.50;;;3.40;;
1366;SDS011;16877;48.810;9.282;2022-11-15T05:17:31;6.07;;;4.27;;
1366;SDS011;16877;48.810;9.282;2022-11-15T05:19:58;5.77;;;3.63;;
1366;SDS011;16877;48.810;9.282;2022-11-15T05:22:25;5.50;;;3.90;;
1366;SDS011;16877;48.810;9.282;2022-11-15T05:24:54;4.43;;;3.37;;
1366;SDS011;16877;48.810;9.282;2022-11-15T05:27:20;5.77;;;3.53;;
1366;SDS011;16877;48.810;9.282;2022-11-15T05:29:47;5.40;;;4.00;;
1366;SDS011;16877;48.810;9.282;2022-11-15T05:32:14;5.90;;;3.83;;
1366;SDS011;16877;48.810;9.282;2022-11-15T05:34:42;6.43;;;3.40;;
1366;SDS011;16877;48.810;9.282;2022-11-15T05:37:09;5.63;;;3.53;;
1366;SDS011;16877;48.810;9.282;2022-11-15T05:39:36;4.33;;;3.40;;
1366;SDS011;16877;48.810;9.282;2022-11-15T05:42:05;5.43;;;3.80;;
1366;SDS011;16877;48.810;9.282;2022-11-15T05:44:35;6.00;;;3.63;;
1366;SDS011;16877;48.810;9.282;2022-11-15T05:47:03;5.63;;;4.27;;
1366;SDS011;16877;48.810;9.282;2022-11-15T05:49:33;5.00;;;3.80;;
1366;SDS011;16877;48.810;9.282;2022-11-15T05:52:04;4.10;;;3.10;;
1366;SDS011;16877;48.810;9.282;2022-11-15T05:54:33;5.83;;;4.33;;
1366;SDS011;16877;48.810;9.282;2022-11-15T05:57:01;4.87;;;3.70;;
1366;SDS011;16877;48.810;9.282;2022-11-15T05:59:31;4.73;;;3.33;;
1366;SDS011;16877;48.810;9.282;2022-11-15T06:01:58;5.13;;;3.67;;
1366;SDS011;16877;48.810;9.282;2022-11-15T06:04:25;5.93;;;3.70;;
1366;SDS011;16877;48.810;9.282;2022-11-15T06:06:52;5.00;;;3.40;;
1366;SDS011;16877;48.810;9.282;2022-11-15T06:09:19;4.07;;;3.00;;
1366;SDS011;16877;48.810;9.282;2022-11-15T06:11:45;4.70;;;3.67;;
1366;SDS011;16877;48.810;9.282;2022-11-15T06:14:12;4.67;;;3.30;;
1366;SDS011;16877;48.810;9.282;2022-11-15T06:16:40;4.10;;;3.20;;
1366;SDS011;16877;48.810;9.282;2022-11-15T06:19:07;4.93;;;3.73;;
1366;SDS011;16877;48.810;9.282;2022-11-15T06:21:34;5.13;;;4.07;;
1366;SDS011;16877;48.810;9.282;2022-11-15T06:24:01;6.87;;;4.20;;
1366;SDS011;16877;48.810;9.282;2022-11-15T06:26:27;4.37;;;3.00;;
1366;SDS011;16877;48.810;9.282;2022-11-15T06:28:54;4.30;;;3.07;;
1366;SDS011;16877;48.810;9.282;2022-11-15T06:31:21;5.83;;;3.90;;
1366;SDS011;16877;48.810;9.282;2022-11-15T06:33:49;5.20;;;3.70;;
1366;SDS011;16877;48.810;9.282;2022-11-15T06:36:15;7.30;;;4.90;;
1366;SDS011;16877;48.810;9.282;2022-11-15T06:38:42;5.07;;;3.77;;
1366;SDS011;16877;48.810;9.282;2022-11-15T06:41:10;4.83;;;3.83;;
1366;SDS011;16877;48.810;9.282;2022-11-15T06:43:37;6.17;;;4.07;;
1366;SDS011;16877;48.810;9.282;2022-11-15T06:46:05;6.00;;;4.70;;
1366;SDS011;16877;48.810;9.282;2022-11-15T06:48:33;6.33;;;3.83;;
1366;SDS011;16877;48.810;9.282;2022-11-15T06:51:02;4.70;;;3.40;;
1366;SDS011;16877;48.810;9.282;2022-11-15T06:53:30;6.70;;;4.07;;
1366;SDS011;16877;48.810;9.282;2022-11-15T06:55:58;5.90;;;4.67;;
1366;SDS011;16877;48.810;9.282;2022-11-15T06:58:25;7.47;;;4.63;;
1366;SDS011;16877;48.810;9.282;2022-11-15T07:00:52;9.87;;;4.67;;
1366;SDS011;16877;48.810;9.282;2022-11-15T07:03:19;5.33;;;4.50;;
1366;SDS011;16877;48.810;9.282;2022-11-15T07:05:50;6.87;;;5.60;;
1366;SDS011;16877;48.810;9.282;2022-11-15T07:08:19;7.47;;;6.50;;
1366;SDS011;16877;48.810;9.282;2022-11-15T07:10:46;11.13;;;6.20;;
1366;SDS011;16877;48.810;9.282;2022-11-15T07:13:13;6.23;;;5.63;;
1366;SDS011;16877;48.810;9.282;2022-11-15T07:15:40;7.13;;;6.23;;
1366;SDS011;16877;48.810;9.282;2022-11-15T07:18:06;8.10;;;6.00;;
1366;SDS011;16877;48.810;9.282;2022-11-15T07:20:34;8.10;;;6.87;;
1366;SDS011;16877;48.810;9.282;2022-11-15T07:23:01;7.40;;;6.07;;
1366;SDS011;16877;48.810;9.282;2022-11-15T07:25:30;8.30;;;5.97;;
1366;SDS011;16877;48.810;9.282;2022-11-15T07:27:57;7.80;;;6.00;;
1366;SDS011;16877;48.810;9.282;2022-11-15T07:30:25;7.27;;;6.20;;
1366;SDS011;16877;48.810;9.282;2022-11-15T07:32:53;9.00;;;6.60;;
1366;SDS011;16877;48.810;9.282;2022-11-15T07:35:20;5.50;;;5.00;;
1366;SDS011;16877;48.810;9.282;2022-11-15T07:37:52;6.90;;;5.17;;
1366;SDS011;16877;48.810;9.282;2022-11-15T07:40:20;10.07;;;5.80;;
1366;SDS011;16877;48.810;9.282;2022-11-15T07:42:48;7.13;;;5.40;;
1366;SDS011;16877;48.810;9.282;2022-11-15T07:45:21;6.20;;;5.13;;
1366;SDS011;16877;48.810;9.282;2022-11-15T07:47:50;10.10;;;5.60;;
1366;SDS011;16877;48.810;9.282;2022-11-15T07:50:17;6.83;;;6.13;;
1366;SDS011;16877;48.810;9.282;2022-11-15T07:52:45;7.70;;;5.50;;
1366;SDS011;16877;48.810;9.282;2022-11-15T07:55:12;6.73;;;5.23;;
1366;SDS011;16877;48.810;9.282;2022-11-15T07:57:38;5.63;;;4.67;;
1366;SDS011;16877;48.810;9.282;2022-11-15T08:00:07;7.43;;;5.27;;
1366;SDS011;16877;48.810;9.282;2022-11-15T08:02:35;9.43;;;5.70;;
1366;SDS011;16877;48.810;9.282;2022-11-15T08:05:01;7.93;;;5.60;;
1366;SDS011;16877;48.810;9.282;2022-11-15T08:07:29;6.30;;;5.33;;
1366;SDS011;16877;48.810;9.282;2022-11-15T08:09:56;4.90;;;4.40;;
1366;SDS011;16877;48.810;9.282;2022-11-15T08:12:23;7.13;;;5.03;;
1366;SDS011;16877;48.810;9.282;2022-11-15T08:14:50;6.80;;;4.43;;
1366;SDS011;16877;48.810;9.282;2022-11-15T08:17:18;5.80;;;4.30;;
1366;SDS011;16877;48.810;9.282;2022-11-15T08:19:45;6.40;;;4.10;;
1366;SDS011;16877;48.810;9.282;2022-11-15T08:22:12;5.60;;;4.20;;
1366;SDS011;16877;48.810;9.282;2022-11-15T08:24:38;6.73;;;4.47;;
1366;SDS011;16877;48.810;9.282;2022-11-15T08:27:05;7.03;;;4.73;;
1366;SDS011;16877;48.810;9.282;2022-11-15T08:29:39;5.23;;;4.30;;
1366;SDS011;16877;48.810;9.282;2022-11-15T08:32:06;5.90;;;4.10;;
1366;SDS011;16877;48.810;9.282;2022-11-15T08:34:34;4.10;;;3.63;;
1366;SDS011;16877;48.810;9.282;2022-11-15T08:37:01;7.83;;;4.03;;
1366;SDS011;16877;48.810;9.282;2022-11-15T08:39:28;5.70;;;4.27;;
1366;SDS011;16877;48.810;9.282;2022-11-15T08:41:55;5.23;;;3.87;;
1366;SDS011;16877;48.810;9.282;2022-11-15T08:44:22;7.23;;;4.30;;
1366;SDS011;16877;48.810;9.282;2022-11-15T08:46:49;5.20;;;4.50;;
1366;SDS011;16877;48.810;9.282;2022-11-15T08:49:16;6.07;;;3.73;;
1366;SDS011;16877;48.810;9.282;2022-11-15T08:51:44;5.80;;;4.47;;
1366;SDS011;16877;48.810;9.282;2022-11-15T08:54:11;5.10;;;3.80;;
1366;SDS011;16877;48.810;9.282;2022-11-15T08:56:37;6.47;;;4.03;;
1366;SDS011;16877;48.810;9.282;2022-11-15T08:59:04;5.67;;;3.63;;
1366;SDS011;16877;48.810;9.282;2022-11-15T09:01:31;5.67;;;4.07;;
1366;SDS011;16877;48.810;9.282;2022-11-15T09:03:58;6.77;;;4.00;;
1366;SDS011;16877;48.810;9.282;2022-11-15T09:06:24;6.13;;;3.83;;
1366;SDS011;16877;48.810;9.282;2022-11-15T09:08:52;6.57;;;4.20;;
1366;SDS011;16877;48.810;9.282;2022-11-15T09:11:19;5.13;;;3.67;;
1366;SDS011;16877;48.810;9.282;2022-11-15T09:13:47;5.50;;;4.37;;
1366;SDS011;16877;48.810;9.282;2022-11-15T09:16:13;5.40;;;4.07;;
1366;SDS011;16877;48.810;9.282;2022-11-15T09:18:40;5.97;;;4.03;;
1366;SDS011;16877;48.810;9.282;2022-11-15T09:21:08;5.33;;;3.90;;
1366;SDS011;16877;48.810;9.282;2022-11-15T09:23:35;5.93;;;3.73;;
1366;SDS011;16877;48.810;9.282;2022-11-15T09:26:03;4.60;;;3.73;;
1366;SDS011;16877;48.810;9.282;2022-11-15T09:28:31;6.10;;;4.03;;
1366;SDS011;16877;48.810;9.282;2022-11-15T09:30:59;5.40;;;3.60;;
1366;SDS011;16877;48.810;9.282;2022-11-15T09:33:27;5.23;;;3.67;;
1366;SDS011;16877;48.810;9.282;2022-11-15T09:35:54;11.77;;;4.50;;
1366;SDS011;16877;48.810;9.282;2022-11-15T09:38:25;5.70;;;3.27;;
1366;SDS011;16877;48.810;9.282;2022-11-15T09:40:58;4.50;;;3.50;;
1366;SDS011;16877;48.810;9.282;2022-11-15T09:43:50;4.60;;;2.97;;
1366;SDS011;16877;48.810;9.282;2022-11-15T09:46:26;4.67;;;3.10;;
1366;SDS011;16877;48.810;9.282;2022-11-15T09:49:01;4.57;;;3.10;;
1366;SDS011;16877;48.810;9.282;2022-11-15T09:51:29;6.57;;;3.43;;
1366;SDS011;16877;48.810;9.282;2022-11-15T09:54:00;5.63;;;3.60;;
1366;SDS011;16877;48.810;9.282;2022-11-15T09:56:33;4.97;;;3.47;;
1366;SDS011;16877;48.810;9.282;2022-11-15T09:59:07;4.47;;;3.30;;
1366;SDS011;16877;48.810;9.282;2022-11-15T10:01:54;6.30;;;3.70;;
1366;SDS011;16877;48.810;9.282;2022-11-15T10:04:26;8.23;;;4.27;;
1366;SDS011;16877;48.810;9.282;2022-11-15T10:06:55;5.70;;;3.03;;
1366;SDS011;16877;48.810;9.282;2022-11-15T10:09:33;3.83;;;2.77;;
1366;SDS011;16877;48.810;9.282;2022-11-15T10:12:05;4.20;;;3.00;;
1366;SDS011;16877;48.810;9.282;2022-11-15T10:14:33;5.47;;;3.13;;
1366;SDS011;16877;48.810;9.282;2022-11-15T10:17:11;4.83;;;2.60;;
1366;SDS011;16877;48.810;9.282;2022-11-15T10:19:50;3.90;;;3.20;;
1366;SDS011;16877;48.810;9.282;2022-11-15T10:22:25;7.03;;;3.43;;
1366;SDS011;16877;48.810;9.282;2022-11-15T10:25:00;5.47;;;3.10;;
1366;SDS011;16877;48.810;9.282;2022-11-15T10:27:40;3.87;;;2.77;;
1366;SDS011;16877;48.810;9.282;2022-11-15T10:30:10;4.50;;;2.87;;
1366;SDS011;16877;48.810;9.282;2022-11-15T10:32:39;6.63;;;2.80;;
1366;SDS011;16877;48.810;9.282;2022-11-15T10:35:18;5.13;;;3.20;;
1366;SDS011;16877;48.810;9.282;2022-11-15T10:37:47;6.73;;;3.40;;
1366;SDS011;16877;48.810;9.282;2022-11-15T10:40:18;8.07;;;3.10;;
1366;SDS011;16877;48.810;9.282;2022-11-15T10:42:49;4.03;;;3.00;;
1366;SDS011;16877;48.810;9.282;2022-11-15T10:45:31;4.37;;;2.80;;
1366;SDS011;16877;48.810;9.282;2022-11-15T10:50:46;3.53;;;2.73;;
1366;SDS011;16877;48.810;9.282;2022-11-15T10:53:16;4.40;;;2.70;;
1366;SDS011;16877;48.810;9.282;2022-11-15T10:55:48;5.23;;;3.20;;
1366;SDS011;16877;48.810;9.282;2022-11-15T10:58:22;4.93;;;3.47;;
1366;SDS011;16877;48.810;9.282;2022-11-15T11:01:08;4.03;;;3.00;;
1366;SDS011;16877;48.810;9.282;2022-11-15T11:03:36;4.67;;;3.37;;
1366;SDS011;16877;48.810;9.282;2022-11-15T11:06:06;5.30;;;3.60;;
1366;SDS011;16877;48.810;9.282;2022-11-15T11:08:34;4.70;;;3.27;;
1366;SDS011;16877;48.810;9.282;2022-11-15T11:11:02;4.53;;;3.20;;
1366;SDS011;16877;48.810;9.282;2022-11-15T11:13:32;5.17;;;3.40;;
1366;SDS011;16877;48.810;9.282;2022-11-15T11:16:14;4.07;;;2.73;;
1366;SDS011;16877;48.810;9.282;2022-11-15T11:19:00;3.47;;;2.70;;
1366;SDS011;16877;48.810;9.282;2022-11-15T11:21:36;4.50;;;2.60;;
1366;SDS011;16877;48.810;9.282;2022-11-15T11:24:12;4.30;;;2.90;;
1366;SDS011;16877;48.810;9.282;2022-11-15T11:26:46;3.50;;;2.40;;
1366;SDS011;16877;48.810;9.282;2022-11-15T11:29:24;3.53;;;2.10;;
1366;SDS011;16877;48.810;9.282;2022-11-15T11:32:01;3.20;;;2.10;;
1366;SDS011;16877;48.810;9.282;2022-11-15T11:34:44;3.10;;;2.13;;
1366;SDS011;16877;48.810;9.282;2022-11-15T11:37:21;3.50;;;2.13;;
1366;SDS011;16877;48.810;9.282;2022-11-15T11:39:59;2.43;;;1.50;;
1366;SDS011;16877;48.810;9.282;2022-11-15T11:42:41;2.93;;;2.07;;
1366;SDS011;16877;48.810;9.282;2022-11-15T11:45:18;3.20;;;2.30;;
1366;SDS011;16877;48.810;9.282;2022-11-15T11:47:51;4.00;;;2.40;;
1366;SDS011;16877;48.810;9.282;2022-11-15T11:50:25;3.60;;;3.07;;
1366;SDS011;16877;48.810;9.282;2022-11-15T11:52:56;5.00;;;3.60;;
1366;SDS011;16877;48.810;9.282;2022-11-15T11:55:26;4.00;;;2.57;;
1366;SDS011;16877;48.810;9.282;2022-11-15T11:58:00;3.50;;;2.50;;
1366;SDS011;16877;48.810;9.282;2022-11-15T12:00:33;4.50;;;2.90;;
1366;SDS011;16877;48.810;9.282;2022-11-15T12:03:05;5.47;;;3.27;;
1366;SDS011;16877;48.810;9.282;2022-11-15T12:05:39;3.10;;;2.30;;
1366;SDS011;16877;48.810;9.282;2022-11-15T12:08:14;3.77;;;2.70;;
1366;SDS011;16877;48.810;9.282;2022-11-15T12:10:52;3.10;;;2.30;;
1366;SDS011;16877;48.810;9.282;2022-11-15T12:13:23;4.20;;;2.37;;
1366;SDS011;16877;48.810;9.282;2022-11-15T12:16:02;3.10;;;1.90;;
1366;SDS011;16877;48.810;9.282;2022-11-15T12:18:35;3.93;;;2.30;;
1366;SDS011;16877;48.810;9.282;2022-11-15T12:21:03;3.10;;;2.10;;
1366;SDS011;16877;48.810;9.282;2022-11-15T12:23:37;3.77;;;2.30;;
1366;SDS011;16877;48.810;9.282;2022-11-15T12:26:08;3.70;;;1.87;;
1366;SDS011;16877;48.810;9.282;2022-11-15T12:28:37;5.83;;;3.00;;
1366;SDS011;16877;48.810;9.282;2022-11-15T12:31:11;3.17;;;1.87;;
1366;SDS011;16877;48.810;9.282;2022-11-15T12:33:44;2.97;;;2.17;;
1366;SDS011;16877;48.810;9.282;2022-11-15T12:36:29;3.07;;;2.03;;
1366;SDS011;16877;48.810;9.282;2022-11-15T12:39:00;4.43;;;2.20;;
1366;SDS011;16877;48.810;9.282;2022-11-15T12:41:29;4.10;;;2.47;;
1366;SDS011;16877;48.810;9.282;2022-11-15T12:43:57;3.30;;;2.10;;
1366;SDS011;16877;48.810;9.282;2022-11-15T12:49:42;2.90;;;2.13;;
1366;SDS011;16877;48.810;9.282;2022-11-15T12:52:11;3.00;;;1.90;;
1366;SDS011;16877;48.810;9.282;2022-11-15T12:54:49;5.17;;;2.97;;
1366;SDS011;16877;48.810;9.282;2022-11-15T12:57:28;4.33;;;2.67;;
1366;SDS011;16877;48.810;9.282;2022-11-15T13:06:38;3.90;;;2.40;;
1366;SDS011;16877;48.810;9.282;2022-11-15T13:12:07;3.30;;;2.17;;
1366;SDS011;16877;48.810;9.282;2022-11-15T13:14:45;3.30;;;2.50;;
1366;SDS011;16877;48.810;9.282;2022-11-15T13:17:24;4.03;;;2.20;;
1366;SDS011;16877;48.810;9.282;2022-11-15T13:19:57;5.10;;;2.53;;
1366;SDS011;16877;48.810;9.282;2022-11-15T13:22:26;2.90;;;1.83;;
1366;SDS011;16877;48.810;9.282;2022-11-15T13:25:14;2.97;;;1.87;;
1366;SDS011;16877;48.810;9.282;2022-11-15T13:27:44;3.00;;;1.80;;
1366;SDS011;16877;48.810;9.282;2022-11-15T13:30:13;3.20;;;1.90;;
1366;SDS011;16877;48.810;9.282;2022-11-15T13:32:44;3.87;;;2.30;;
1366;SDS011;16877;48.810;9.282;2022-11-15T13:35:17;3.60;;;1.87;;
1366;SDS011;16877;48.810;9.282;2022-11-15T13:37:46;2.90;;;2.00;;
1366;SDS011;16877;48.810;9.282;2022-11-15T13:40:21;3.97;;;2.13;;
1366;SDS011;16877;48.810;9.282;2022-11-15T13:42:52;2.97;;;2.00;;
1366;SDS011;16877;48.810;9.282;2022-11-15T13:45:19;2.90;;;2.20;;
1366;SDS011;16877;48.810;9.282;2022-11-15T13:47:50;3.00;;;1.80;;
1366;SDS011;16877;48.810;9.282;2022-11-15T13:50:19;3.77;;;2.40;;
1366;SDS011;16877;48.810;9.282;2022-11-15T13:52:48;5.47;;;3.30;;
1366;SDS011;16877;48.810;9.282;2022-11-15T13:55:15;3.47;;;2.50;;
1366;SDS011;16877;48.810;9.282;2022-11-15T13:57:46;3.20;;;2.27;;
1366;SDS011;16877;48.810;9.282;2022-11-15T14:00:25;5.47;;;2.60;;
1366;SDS011;16877;48.810;9.282;2022-11-15T14:02:55;6.13;;;2.33;;
1366;SDS011;16877;48.810;9.282;2022-11-15T14:05:31;4.90;;;2.50;;
1366;SDS011;16877;48.810;9.282;2022-11-15T14:07:58;3.97;;;2.00;;
1366;SDS011;16877;48.810;9.282;2022-11-15T14:10:28;4.20;;;2.53;;
1366;SDS011;16877;48.810;9.282;2022-11-15T14:12:56;3.80;;;2.23;;
1366;SDS011;16877;48.810;9.282;2022-11-15T14:15:26;4.70;;;2.87;;
1366;SDS011;16877;48.810;9.282;2022-11-15T14:17:55;4.07;;;2.63;;
1366;SDS011;16877;48.810;9.282;2022-11-15T14:20:26;5.00;;;3.30;;
1366;SDS011;16877;48.810;9.282;2022-11-15T14:22:57;4.50;;;2.90;;
1366;SDS011;16877;48.810;9.282;2022-11-15T14:25:25;4.03;;;2.93;;
1366;SDS011;16877;48.810;9.282;2022-11-15T14:28:09;4.20;;;2.60;;
1366;SDS011;16877;48.810;9.282;2022-11-15T14:30:38;4.40;;;2.33;;
1366;SDS011;16877;48.810;9.282;2022-11-15T14:33:15;3.73;;;2.87;;
1366;SDS011;16877;48.810;9.282;2022-11-15T14:35:45;4.13;;;2.60;;
1366;SDS011;16877;48.810;9.282;2022-11-15T14:38:13;4.93;;;3.33;;
1366;SDS011;16877;48.810;9.282;2022-11-15T14:40:40;3.93;;;2.67;;
1366;SDS011;16877;48.810;9.282;2022-11-15T14:43:08;4.70;;;2.60;;
1366;SDS011;16877;48.810;9.282;2022-11-15T14:45:36;4.53;;;2.63;;
1366;SDS011;16877;48.810;9.282;2022-11-15T14:48:03;4.57;;;2.67;;
1366;SDS011;16877;48.810;9.282;2022-11-15T14:50:30;3.23;;;2.43;;
1366;SDS011;16877;48.810;9.282;2022-11-15T14:52:58;3.90;;;2.23;;
1366;SDS011;16877;48.810;9.282;2022-11-15T14:55:27;4.63;;;2.77;;
1366;SDS011;16877;48.810;9.282;2022-11-15T14:57:57;3.47;;;2.67;;
1366;SDS011;16877;48.810;9.282;2022-11-15T15:00:24;5.00;;;2.20;;
1366;SDS011;16877;48.810;9.282;2022-11-15T15:02:51;4.73;;;2.67;;
1366;SDS011;16877;48.810;9.282;2022-11-15T15:05:20;5.37;;;3.13;;
1366;SDS011;16877;48.810;9.282;2022-11-15T15:07:49;5.03;;;2.27;;
1366;SDS011;16877;48.810;9.282;2022-11-15T15:10:16;5.17;;;2.90;;
1366;SDS011;16877;48.810;9.282;2022-11-15T15:12:44;6.77;;;2.80;;
1366;SDS011;16877;48.810;9.282;2022-11-15T15:15:12;4.40;;;2.87;;
1366;SDS011;16877;48.810;9.282;2022-11-15T15:17:40;3.87;;;2.70;;
1366;SDS011;16877;48.810;9.282;2022-11-15T15:20:07;4.30;;;2.83;;
1366;SDS011;16877;48.810;9.282;2022-11-15T15:22:34;4.10;;;2.83;;
1366;SDS011;16877;48.810;9.282;2022-11-15T15:25:01;4.67;;;3.30;;
1366;SDS011;16877;48.810;9.282;2022-11-15T15:27:29;4.30;;;3.10;;
1366;SDS011;16877;48.810;9.282;2022-11-15T15:29:57;3.37;;;2.60;;
1366;SDS011;16877;48.810;9.282;2022-11-15T15:32:24;6.73;;;2.83;;
1366;SDS011;16877;48.810;9.282;2022-11-15T15:34:50;4.20;;;2.20;;